Time;durP1;ratioP1;P1;durP2;ratioP2;P2;SDS_P1;SDS_P2;PMS_P1;PMS_P2;Temp;Humidity;BMP_temperature;BMP_pressure;BME280_temperature;BME280_humidity;BME280_pressure;Samples;Min_cycle;Max_cycle;Signal;HPM_P1;HPM_P2
2022/08/28 00:00:33;;;;;;;12.65;2.30;;;16.20;74.30;;;;;;5068964;28;20017;-47
2022/08/28 00:02:59;;;;;;;11.23;3.10;;;16.10;74.80;;;;;;5039887;28;20021;-46
2022/08/28 00:05:28;;;;;;;6.65;2.75;;;16.10;74.90;;;;;;5050147;28;20040;-47
2022/08/28 00:07:54;;;;;;;12.93;3.33;;;16.10;75.10;;;;;;5043920;28;20370;-46
2022/08/28 00:10:22;;;;;;;9.50;2.83;;;16.10;75.40;;;;;;5047508;28;20029;-47
2022/08/28 00:12:51;;;;;;;13.73;4.05;;;16.10;75.60;;;;;;5062250;28;20039;-46
2022/08/28 00:15:25;;;;;;;9.97;2.53;;;16.10;75.80;;;;;;5067904;28;20043;-46
2022/08/28 00:17:51;;;;;;;7.47;2.33;;;16.10;76.00;;;;;;5066568;28;20756;-47
2022/08/28 00:20:19;;;;;;;13.52;2.65;;;16.20;76.10;;;;;;5068947;28;20189;-48
2022/08/28 00:22:45;;;;;;;11.07;3.72;;;16.10;75.80;;;;;;5035637;28;20365;-45
2022/08/28 00:25:14;;;;;;;9.25;2.53;;;16.10;75.50;;;;;;5066431;28;20032;-48
2022/08/28 00:27:52;;;;;;;9.10;2.25;;;16.10;74.80;;;;;;5068715;28;20033;-47
2022/08/28 00:30:24;;;;;;;11.52;2.72;;;16.10;74.30;;;;;;5068086;28;20029;-46
2022/08/28 00:32:51;;;;;;;10.27;2.70;;;16.10;73.90;;;;;;5069718;28;20567;-50
2022/08/28 00:35:18;;;;;;;11.73;3.15;;;16.10;74.10;;;;;;5063904;28;20044;-50
2022/08/28 00:37:45;;;;;;;7.10;2.25;;;16.00;74.40;;;;;;5070420;28;20020;-47
2022/08/28 00:40:13;;;;;;;13.63;4.10;;;16.00;74.80;;;;;;5051641;28;20110;-48
2022/08/28 00:42:41;;;;;;;12.00;3.45;;;16.00;75.40;;;;;;5050729;28;20035;-46
2022/08/28 00:45:07;;;;;;;8.23;2.70;;;16.00;75.70;;;;;;5032799;28;20032;-48
2022/08/28 00:47:37;;;;;;;12.63;3.00;;;16.00;76.00;;;;;;5075667;28;20136;-46
2022/08/28 00:50:05;;;;;;;11.02;2.55;;;16.00;76.20;;;;;;5058130;28;20060;-47
2022/08/28 00:52:31;;;;;;;13.82;3.15;;;16.10;76.40;;;;;;5067142;28;20055;-48
2022/08/28 00:55:01;;;;;;;16.00;3.63;;;16.20;76.70;;;;;;5061268;28;20437;-46
2022/08/28 00:57:33;;;;;;;9.10;2.53;;;16.30;76.50;;;;;;5056434;28;20095;-45
2022/08/28 00:59:59;;;;;;;7.18;2.50;;;16.40;75.80;;;;;;5050422;28;20378;-46
2022/08/28 01:02:26;;;;;;;16.40;3.83;;;16.40;75.00;;;;;;5068077;28;20047;-46
2022/08/28 01:04:52;;;;;;;15.63;3.67;;;16.30;74.30;;;;;;5064740;28;20039;-46
2022/08/28 01:07:18;;;;;;;9.02;2.50;;;16.30;73.60;;;;;;5037569;28;20028;-49
2022/08/28 01:09:47;;;;;;;11.88;2.42;;;16.20;73.70;;;;;;5055461;28;20338;-46
2022/08/28 01:12:20;;;;;;;11.15;2.53;;;16.20;73.80;;;;;;5050237;28;20053;-46
2022/08/28 01:14:49;;;;;;;10.88;2.97;;;16.10;74.00;;;;;;5032815;28;20049;-49
2022/08/28 01:17:19;;;;;;;15.38;3.67;;;16.10;74.30;;;;;;5065271;28;20062;-47
2022/08/28 01:19:57;;;;;;;8.07;2.97;;;16.00;74.60;;;;;;5068162;28;20046;-50
2022/08/28 01:22:37;;;;;;;9.68;2.22;;;15.90;74.80;;;;;;5054916;28;20024;-47
2022/08/28 01:25:06;;;;;;;16.05;3.50;;;15.90;74.80;;;;;;5058515;28;20086;-45
2022/08/28 01:27:32;;;;;;;7.38;2.17;;;15.90;74.80;;;;;;5065916;28;20413;-46
2022/08/28 01:29:58;;;;;;;11.27;2.60;;;15.90;74.80;;;;;;5064327;28;20033;-46
2022/08/28 01:32:33;;;;;;;7.68;2.95;;;15.90;74.80;;;;;;5048707;28;20052;-49
2022/08/28 01:35:02;;;;;;;12.73;3.28;;;15.90;74.90;;;;;;5050837;28;20029;-49
2022/08/28 01:37:29;;;;;;;10.95;2.42;;;15.80;75.00;;;;;;5053299;28;20499;-46
2022/08/28 01:39:54;;;;;;;11.60;2.90;;;15.80;74.80;;;;;;5055746;28;20573;-47
2022/08/28 01:42:20;;;;;;;6.15;2.42;;;15.80;74.80;;;;;;5065706;28;20032;-46
2022/08/28 01:44:49;;;;;;;8.88;3.45;;;15.70;75.00;;;;;;5054564;28;20033;-46
2022/08/28 01:47:15;;;;;;;13.82;3.00;;;15.70;75.20;;;;;;5065149;28;20128;-46
2022/08/28 01:49:41;;;;;;;8.40;2.38;;;15.70;75.50;;;;;;5049621;28;20075;-48
2022/08/28 01:52:08;;;;;;;8.88;3.05;;;15.80;75.90;;;;;;5056204;28;20029;-46
2022/08/28 01:54:33;;;;;;;14.43;3.80;;;15.80;76.20;;;;;;5052522;28;20039;-46
2022/08/28 01:56:59;;;;;;;10.80;2.95;;;15.90;76.50;;;;;;5031039;28;20032;-50
2022/08/28 01:59:25;;;;;;;11.52;3.17;;;15.90;75.90;;;;;;5063130;28;20377;-47
2022/08/28 02:01:51;;;;;;;13.07;2.65;;;15.90;74.70;;;;;;5031668;28;20064;-46
2022/08/28 02:04:16;;;;;;;13.88;4.10;;;15.90;74.40;;;;;;5031844;28;20025;-46
2022/08/28 02:06:42;;;;;;;18.48;4.22;;;15.90;74.40;;;;;;5056269;28;20046;-46
2022/08/28 02:09:08;;;;;;;13.00;3.53;;;15.90;74.50;;;;;;5034744;28;20430;-46
2022/08/28 02:11:38;;;;;;;13.02;2.63;;;15.90;74.50;;;;;;5061732;28;20100;-45
2022/08/28 02:14:06;;;;;;;;;;;15.90;74.60;;;;;;5052306;28;20372;-45
2022/08/28 02:16:31;;;;;;;8.23;2.58;;;15.90;75.30;;;;;;5032404;28;20319;-46
2022/08/28 02:18:57;;;;;;;10.32;2.45;;;15.90;76.00;;;;;;5049215;28;20032;-46
2022/08/28 02:21:24;;;;;;;8.80;2.60;;;16.00;76.50;;;;;;5039133;28;20032;-46
2022/08/28 02:23:49;;;;;;;15.02;2.78;;;16.00;76.60;;;;;;5048704;28;20028;-46
2022/08/28 02:26:15;;;;;;;15.85;3.55;;;16.00;76.40;;;;;;5030619;28;20029;-46
2022/08/28 02:28:43;;;;;;;10.18;3.40;;;16.00;76.20;;;;;;5047459;28;20021;-46
2022/08/28 02:31:11;;;;;;;12.02;3.28;;;16.20;75.60;;;;;;5048103;28;20041;-47
2022/08/28 02:33:39;;;;;;;8.80;3.40;;;16.10;75.20;;;;;;5048526;28;20050;-48
2022/08/28 02:36:08;;;;;;;10.38;3.00;;;16.10;75.10;;;;;;5056017;28;20119;-46
2022/08/28 02:38:35;;;;;;;10.50;2.70;;;16.10;75.10;;;;;;5068375;28;20056;-50
2022/08/28 02:41:00;;;;;;;10.23;2.90;;;16.00;75.00;;;;;;5053551;28;20024;-46
2022/08/28 02:43:28;;;;;;;12.45;2.88;;;16.00;75.20;;;;;;5051382;28;20032;-49
2022/08/28 02:45:54;;;;;;;10.68;3.03;;;15.90;75.20;;;;;;5051204;28;20037;-46
2022/08/28 02:48:20;;;;;;;9.70;2.28;;;15.90;75.50;;;;;;5048408;28;20087;-47
2022/08/28 02:50:45;;;;;;;8.68;2.85;;;15.90;75.60;;;;;;5031136;28;20029;-45
2022/08/28 02:53:14;;;;;;;13.00;3.28;;;15.80;75.80;;;;;;5041062;28;20109;-46
2022/08/28 02:55:40;;;;;;;11.13;2.72;;;15.80;75.80;;;;;;5056330;28;20044;-47
2022/08/28 02:58:08;;;;;;;8.10;2.45;;;15.70;75.40;;;;;;5057143;28;20103;-47
2022/08/28 03:00:34;;;;;;;8.88;2.40;;;15.60;74.50;;;;;;5064269;28;20083;-46
2022/08/28 03:02:59;;;;;;;7.15;2.67;;;15.60;73.90;;;;;;5048153;28;20048;-50
2022/08/28 03:05:28;;;;;;;8.85;2.80;;;15.60;73.90;;;;;;5047936;28;20446;-46
2022/08/28 03:07:54;;;;;;;9.18;2.78;;;15.60;73.90;;;;;;5047787;28;20422;-46
2022/08/28 03:10:22;;;;;;;9.43;2.60;;;15.50;74.60;;;;;;5049895;28;20382;-45
2022/08/28 03:12:48;;;;;;;9.55;2.88;;;15.50;75.10;;;;;;5049069;28;20060;-46
2022/08/28 03:15:15;;;;;;;16.88;3.35;;;15.50;75.60;;;;;;5039411;28;20446;-46
2022/08/28 03:17:41;;;;;;;8.90;2.70;;;15.50;76.10;;;;;;5032584;28;20025;-48
2022/08/28 03:20:09;;;;;;;9.20;2.83;;;15.60;76.40;;;;;;5030333;28;20670;-48
2022/08/28 03:25:23;;;;;;;10.00;3.28;;;15.60;76.70;;;;;;5042343;28;20186;-47
2022/08/28 03:27:49;;;;;;;10.00;3.67;;;15.50;76.60;;;;;;5064347;28;20017;-48
2022/08/28 03:30:16;;;;;;;9.85;3.22;;;15.50;76.60;;;;;;5059897;28;20033;-46
2022/08/28 03:32:41;;;;;;;9.43;3.30;;;15.40;76.10;;;;;;5058800;28;20035;-46
2022/08/28 03:35:07;;;;;;;10.10;2.95;;;15.40;75.90;;;;;;5060227;28;20032;-46
2022/08/28 03:37:35;;;;;;;10.20;2.53;;;15.40;75.60;;;;;;5053011;28;20035;-46
2022/08/28 03:40:02;;;;;;;10.15;2.58;;;15.40;75.60;;;;;;5047376;28;20039;-47
2022/08/28 03:42:27;;;;;;;7.60;2.60;;;15.40;75.70;;;;;;5040939;28;20132;-46
2022/08/28 03:44:53;;;;;;;7.80;3.00;;;15.40;75.80;;;;;;5051496;28;20414;-45
2022/08/28 03:47:19;;;;;;;9.80;2.92;;;15.40;76.10;;;;;;5055609;28;20122;-47
2022/08/28 03:49:45;;;;;;;10.38;2.65;;;15.40;76.20;;;;;;5053842;28;20028;-46
2022/08/28 03:52:11;;;;;;;12.45;3.88;;;15.30;76.40;;;;;;5058369;28;20409;-46
2022/08/28 03:54:37;;;;;;;10.45;2.65;;;15.30;76.50;;;;;;5033896;28;20059;-46
2022/08/28 03:57:02;;;;;;;10.93;3.75;;;15.30;76.50;;;;;;5036751;28;20063;-46
2022/08/28 03:59:28;;;;;;;10.75;4.00;;;15.40;76.40;;;;;;5033590;28;20033;-46
2022/08/28 04:01:54;;;;;;;9.10;3.17;;;15.30;76.30;;;;;;5051604;28;20025;-49
2022/08/28 04:04:22;;;;;;;6.47;2.45;;;15.30;76.30;;;;;;5059998;28;20033;-47
2022/08/28 04:06:47;;;;;;;9.32;3.25;;;15.30;76.00;;;;;;5038507;28;20029;-46
2022/08/28 04:09:16;;;;;;;11.13;3.42;;;15.20;76.10;;;;;;5051121;28;20039;-48
2022/08/28 04:11:42;;;;;;;10.32;2.20;;;15.20;76.20;;;;;;5062542;28;20044;-46
2022/08/28 04:14:09;;;;;;;9.43;2.33;;;15.20;76.30;;;;;;5068410;28;20032;-46
2022/08/28 04:16:35;;;;;;;12.13;3.03;;;15.20;76.50;;;;;;5042055;28;20443;-47
2022/08/28 04:19:01;;;;;;;12.25;3.50;;;15.10;76.50;;;;;;5051390;28;20393;-48
2022/08/28 04:21:26;;;;;;;8.82;3.22;;;15.10;76.70;;;;;;5058865;28;20116;-46
2022/08/28 04:23:53;;;;;;;7.85;2.58;;;15.20;76.70;;;;;;5070011;28;20110;-46
2022/08/28 04:26:24;;;;;;;13.52;3.53;;;15.10;76.80;;;;;;5034332;28;20029;-46
2022/08/28 04:28:51;;;;;;;8.63;2.63;;;15.20;76.90;;;;;;5057044;28;20021;-46
2022/08/28 04:31:17;;;;;;;7.95;2.63;;;15.20;76.80;;;;;;5033897;28;20021;-45
2022/08/28 04:33:43;;;;;;;8.98;2.90;;;15.30;76.80;;;;;;5050401;28;20044;-47
2022/08/28 04:36:16;;;;;;;8.15;3.03;;;15.40;76.60;;;;;;5032867;28;20075;-46
2022/08/28 04:38:42;;;;;;;11.43;3.53;;;15.40;77.00;;;;;;5050437;28;20033;-46
2022/08/28 04:41:10;;;;;;;13.15;3.13;;;15.40;77.10;;;;;;5050631;28;20037;-46
2022/08/28 04:43:36;;;;;;;24.20;4.72;;;15.40;77.20;;;;;;5033894;28;20078;-46
2022/08/28 04:46:07;;;;;;;8.75;2.70;;;15.50;77.30;;;;;;5061056;28;20028;-45
2022/08/28 04:48:36;;;;;;;8.73;2.40;;;15.50;77.20;;;;;;5053859;28;20056;-45
2022/08/28 04:51:07;;;;;;;10.65;2.72;;;15.50;77.20;;;;;;5063449;28;20119;-45
2022/08/28 04:53:33;;;;;;;10.43;2.40;;;15.50;77.00;;;;;;5053711;28;20068;-46
2022/08/28 04:55:59;;;;;;;7.35;2.47;;;15.50;76.80;;;;;;5059305;28;20079;-45
2022/08/28 04:58:25;;;;;;;11.80;3.75;;;15.50;76.50;;;;;;5034274;28;20112;-47
2022/08/28 05:00:53;;;;;;;11.82;2.72;;;15.50;76.40;;;;;;5060286;28;20327;-46
2022/08/28 05:03:19;;;;;;;8.35;3.00;;;15.50;76.10;;;;;;5050085;28;20028;-47
2022/08/28 05:05:50;;;;;;;11.88;4.00;;;15.60;76.00;;;;;;5048907;28;20037;-46
2022/08/28 05:08:21;;;;;;;10.18;2.72;;;15.60;76.00;;;;;;5049608;28;20017;-46
2022/08/28 05:10:47;;;;;;;9.93;4.15;;;15.60;75.60;;;;;;5054790;28;20078;-45
2022/08/28 05:13:15;;;;;;;7.40;2.38;;;15.60;75.30;;;;;;5051777;28;20090;-47
2022/08/28 05:15:45;;;;;;;8.15;3.67;;;15.70;74.80;;;;;;5055829;28;20029;-48
2022/08/28 05:18:15;;;;;;;6.75;2.40;;;15.80;74.80;;;;;;5050289;28;20032;-47
2022/08/28 05:20:43;;;;;;;15.95;4.55;;;15.90;74.30;;;;;;5056130;28;20048;-46
2022/08/28 05:23:09;;;;;;;9.50;3.47;;;16.00;73.90;;;;;;5057401;28;20025;-47
2022/08/28 05:25:37;;;;;;;11.80;2.80;;;16.10;73.70;;;;;;5036450;28;20035;-47
2022/08/28 05:28:04;;;;;;;7.53;2.80;;;16.10;73.40;;;;;;5055728;28;20039;-46
2022/08/28 05:30:31;;;;;;;9.38;2.30;;;16.00;73.40;;;;;;5057746;28;20052;-47
2022/08/28 05:32:59;;;;;;;8.43;2.53;;;16.00;73.20;;;;;;5054608;28;20020;-45
2022/08/28 05:35:25;;;;;;;7.93;2.58;;;16.00;72.90;;;;;;5053183;28;20031;-46
2022/08/28 05:37:51;;;;;;;8.48;2.78;;;16.00;73.20;;;;;;5041588;28;20029;-47
2022/08/28 05:40:21;;;;;;;8.98;3.20;;;15.90;73.60;;;;;;5060324;28;20032;-47
2022/08/28 05:42:49;;;;;;;11.73;3.05;;;15.90;73.70;;;;;;5048343;28;20377;-47
2022/08/28 05:45:15;;;;;;;11.00;3.30;;;15.90;74.00;;;;;;5061828;28;20446;-47
2022/08/28 05:47:42;;;;;;;8.93;3.50;;;15.90;74.40;;;;;;5046370;28;20071;-49
2022/08/28 05:50:12;;;;;;;8.05;2.67;;;16.00;74.30;;;;;;5048375;28;20039;-46
2022/08/28 05:52:38;;;;;;;11.07;3.08;;;16.10;74.10;;;;;;5061640;28;20033;-46
2022/08/28 05:55:06;;;;;;;8.70;2.63;;;16.10;74.00;;;;;;5054346;28;20095;-46
2022/08/28 05:57:32;;;;;;;7.70;2.40;;;16.30;74.00;;;;;;5052018;28;20136;-46
2022/08/28 06:00:01;;;;;;;9.63;3.13;;;16.50;73.50;;;;;;5060231;28;20047;-46
2022/08/28 06:02:29;;;;;;;9.80;2.38;;;16.70;73.40;;;;;;5056054;28;20021;-47
2022/08/28 06:04:56;;;;;;;19.77;3.13;;;16.80;73.10;;;;;;5055408;28;20036;-46
2022/08/28 06:07:22;;;;;;;17.13;3.30;;;16.90;72.30;;;;;;5037600;28;20083;-48
2022/08/28 06:09:48;;;;;;;9.40;3.47;;;17.10;72.20;;;;;;5040741;28;20020;-47
2022/08/28 06:12:14;;;;;;;9.13;2.80;;;17.30;71.50;;;;;;5067284;28;20093;-46
2022/08/28 06:14:40;;;;;;;10.77;3.42;;;17.40;70.90;;;;;;5064376;28;20075;-47
2022/08/28 06:17:08;;;;;;;9.48;2.50;;;17.40;69.50;;;;;;5035440;28;20386;-47
2022/08/28 06:19:35;;;;;;;9.35;2.03;;;17.40;68.80;;;;;;5041510;28;20037;-48
2022/08/28 06:22:03;;;;;;;7.97;2.58;;;17.50;67.80;;;;;;5035266;28;20044;-47
2022/08/28 06:24:31;;;;;;;16.70;3.22;;;17.50;67.30;;;;;;5030958;28;20167;-46
2022/08/28 06:26:58;;;;;;;8.45;2.30;;;17.40;67.20;;;;;;5067068;28;20039;-45
2022/08/28 06:29:24;;;;;;;8.38;3.17;;;17.40;67.60;;;;;;5057632;28;20028;-47
2022/08/28 06:32:03;;;;;;;6.75;2.80;;;17.40;68.10;;;;;;5042434;28;20060;-45
2022/08/28 06:34:29;;;;;;;8.75;2.45;;;17.40;67.80;;;;;;5049759;28;20032;-46
2022/08/28 06:36:55;;;;;;;8.20;2.45;;;17.40;67.10;;;;;;5065431;28;20021;-50
2022/08/28 06:39:21;;;;;;;8.20;3.35;;;17.40;66.40;;;;;;5045461;28;20032;-46
2022/08/28 06:41:47;;;;;;;11.90;2.97;;;17.40;66.70;;;;;;5041389;28;20329;-46
2022/08/28 06:44:18;;;;;;;11.45;3.92;;;17.50;66.20;;;;;;5054137;28;20036;-48
2022/08/28 06:46:45;;;;;;;8.43;2.15;;;17.60;65.90;;;;;;5059701;28;20442;-47
2022/08/28 06:49:11;;;;;;;18.25;3.40;;;17.70;66.80;;;;;;5065359;28;20452;-46
2022/08/28 06:51:38;;;;;;;8.77;2.67;;;17.80;66.40;;;;;;5064484;28;20393;-48
2022/08/28 06:54:04;;;;;;;7.18;2.05;;;17.80;64.60;;;;;;5067734;28;20032;-46
2022/08/28 06:56:30;;;;;;;11.30;2.33;;;17.70;63.30;;;;;;5052009;28;20052;-46
2022/08/28 06:58:57;;;;;;;10.20;2.63;;;17.70;64.80;;;;;;5060207;28;20456;-46
2022/08/28 07:01:32;;;;;;;7.93;2.40;;;17.60;64.60;;;;;;5062183;28;20060;-48
2022/08/28 07:04:05;;;;;;;9.07;3.03;;;17.60;63.70;;;;;;5066056;28;20028;-46
2022/08/28 07:06:34;;;;;;;10.30;2.70;;;17.70;64.00;;;;;;5047275;28;20111;-48
2022/08/28 07:08:59;;;;;;;11.32;2.35;;;17.90;64.80;;;;;;5044611;28;20385;-47
2022/08/28 07:11:30;;;;;;;9.00;2.50;;;17.90;64.30;;;;;;5033914;28;20045;-47
2022/08/28 07:13:56;;;;;;;8.32;2.72;;;17.90;64.90;;;;;;5049521;28;20046;-46
2022/08/28 07:16:25;;;;;;;10.27;2.88;;;17.80;65.60;;;;;;5062594;28;20029;-47
2022/08/28 07:18:51;;;;;;;4.72;2.10;;;17.80;66.10;;;;;;5064170;28;20068;-46
2022/08/28 07:21:20;;;;;;;5.80;2.30;;;17.70;66.40;;;;;;5061189;28;20453;-48
2022/08/28 07:23:49;;;;;;;9.82;2.05;;;17.70;66.00;;;;;;5040165;28;20052;-46
2022/08/28 07:26:18;;;;;;;9.13;3.47;;;17.60;67.00;;;;;;5061653;28;20038;-46
2022/08/28 07:28:44;;;;;;;14.40;2.97;;;17.80;66.20;;;;;;5062457;28;20031;-46
2022/08/28 07:31:15;;;;;;;8.43;2.78;;;18.00;66.60;;;;;;5044179;28;20033;-46
2022/08/28 07:33:42;;;;;;;13.30;2.95;;;18.40;64.30;;;;;;5047898;28;20500;-46
2022/08/28 07:36:17;;;;;;;11.45;3.33;;;18.60;62.60;;;;;;5057690;28;20039;-46
2022/08/28 07:38:43;;;;;;;12.60;2.63;;;18.60;64.40;;;;;;5063396;28;20051;-47
2022/08/28 07:41:24;;;;;;;7.57;2.53;;;18.40;66.20;;;;;;5050523;28;20036;-47
2022/08/28 07:46:38;;;;;;;7.75;2.53;;;18.40;65.70;;;;;;5061932;28;20112;-48
2022/08/28 07:49:07;;;;;;;6.60;2.60;;;18.30;66.70;;;;;;5067176;28;20155;-47
2022/08/28 07:51:33;;;;;;;10.07;2.75;;;18.30;68.00;;;;;;5055222;28;20415;-48
2022/08/28 07:54:02;;;;;;;9.50;3.60;;;18.50;68.40;;;;;;5053317;28;20040;-47
2022/08/28 07:56:29;;;;;;;11.70;4.45;;;18.90;67.10;;;;;;5062012;28;20032;-46
2022/08/28 07:58:57;;;;;;;10.60;3.65;;;18.90;65.70;;;;;;5071545;28;20036;-46
2022/08/28 08:01:23;;;;;;;8.40;3.28;;;18.90;65.70;;;;;;5061978;28;20063;-46
2022/08/28 08:03:49;;;;;;;13.32;3.63;;;18.80;64.30;;;;;;5053731;28;20031;-47
2022/08/28 08:06:15;;;;;;;10.48;3.70;;;18.60;64.60;;;;;;5066529;28;20025;-46
2022/08/28 08:08:40;;;;;;;9.93;3.92;;;18.60;66.20;;;;;;5057638;28;20020;-48
2022/08/28 08:11:09;;;;;;;9.68;2.72;;;18.80;64.70;;;;;;5041356;28;20032;-47
2022/08/28 08:13:36;;;;;;;12.35;3.20;;;18.80;62.30;;;;;;5061717;28;20024;-47
2022/08/28 08:16:18;;;;;;;8.05;2.80;;;19.00;61.30;;;;;;5051856;28;20506;-47
2022/08/28 08:18:44;;;;;;;11.00;3.38;;;19.40;59.70;;;;;;5040445;28;20040;-46
2022/08/28 08:21:13;;;;;;;6.75;3.08;;;19.50;59.80;;;;;;5069928;28;20028;-47
2022/08/28 08:23:40;;;;;;;12.63;3.42;;;19.40;60.70;;;;;;5069533;28;20683;-47
2022/08/28 08:26:09;;;;;;;8.38;3.15;;;19.20;62.40;;;;;;5059320;28;20051;-46
2022/08/28 08:28:36;;;;;;;11.90;3.80;;;19.00;62.70;;;;;;5050080;28;20057;-47
2022/08/28 08:31:03;;;;;;;9.20;2.85;;;19.50;61.10;;;;;;5033297;28;20036;-48
2022/08/28 08:33:30;;;;;;;8.98;2.42;;;19.90;59.60;;;;;;5053808;28;20104;-46
2022/08/28 08:35:57;;;;;;;8.45;3.33;;;19.50;59.50;;;;;;5049859;28;20032;-47
2022/08/28 08:38:23;;;;;;;7.15;3.33;;;19.80;59.50;;;;;;5032991;28;20025;-47
2022/08/28 08:40:50;;;;;;;10.20;3.22;;;19.80;57.70;;;;;;5050356;28;20461;-48
2022/08/28 08:43:18;;;;;;;9.60;3.20;;;19.60;58.20;;;;;;5053583;28;20013;-46
2022/08/28 08:45:46;;;;;;;12.98;3.45;;;19.50;59.00;;;;;;5051317;28;20383;-47
2022/08/28 08:48:32;;;;;;;8.45;2.92;;;19.20;58.30;;;;;;5035501;28;20036;-46
2022/08/28 08:51:05;;;;;;;10.57;3.35;;;19.20;58.50;;;;;;5054289;28;20028;-47
2022/08/28 08:53:42;;;;;;;9.18;3.40;;;19.20;57.70;;;;;;5052789;28;20025;-49
2022/08/28 08:56:14;;;;;;;9.73;3.95;;;19.30;57.90;;;;;;5049870;28;20194;-46
2022/08/28 08:58:43;;;;;;;10.73;3.13;;;19.70;58.00;;;;;;5039084;28;20037;-48
2022/08/28 09:01:43;;;;;;;9.60;2.60;;;19.80;57.00;;;;;;5050307;28;20167;-46
2022/08/28 09:04:39;;;;;;;7.60;3.60;;;20.30;57.60;;;;;;5043797;28;20062;-47
2022/08/28 09:07:36;;;;;;;7.05;3.13;;;20.80;55.50;;;;;;5063551;28;20086;-46
2022/08/28 09:10:05;;;;;;;8.02;3.20;;;21.20;52.90;;;;;;5055835;28;20032;-47
2022/08/28 09:13:01;;;;;;;7.80;2.78;;;20.90;55.70;;;;;;5068819;28;20103;-47
2022/08/28 09:15:30;;;;;;;14.52;3.60;;;20.50;58.10;;;;;;5064693;28;20033;-46
2022/08/28 09:18:21;;;;;;;13.18;3.30;;;20.20;61.00;;;;;;5032543;28;20029;-47
2022/08/28 09:20:52;;;;;;;12.35;3.60;;;19.90;61.80;;;;;;5057195;28;20025;-46
2022/08/28 09:23:22;;;;;;;11.40;4.13;;;19.50;62.90;;;;;;5039606;28;20040;-49
2022/08/28 09:26:07;;;;;;;11.18;3.45;;;19.30;62.30;;;;;;5062479;28;20031;-46
2022/08/28 09:28:37;;;;;;;10.15;3.63;;;19.30;62.00;;;;;;5049378;28;20032;-51
2022/08/28 09:31:05;;;;;;;;;;;19.60;62.30;;;;;;5051386;28;20021;-47
2022/08/28 09:33:44;;;;;;;6.95;3.70;;;20.10;59.20;;;;;;5053538;28;19909;-46
2022/08/28 09:36:37;;;;;;;9.90;4.57;;;20.60;58.00;;;;;;5058198;28;20032;-48
2022/08/28 09:39:03;;;;;;;11.40;3.72;;;21.20;53.70;;;;;;5045338;28;20289;-47
2022/08/28 09:44:16;;;;;;;9.98;3.78;;;20.80;56.50;;;;;;5057109;28;20073;-47
2022/08/28 09:46:48;;;;;;;8.67;4.10;;;21.10;52.40;;;;;;5034677;28;20029;-47
2022/08/28 09:49:13;;;;;;;7.38;3.47;;;21.20;51.50;;;;;;5049616;28;20438;-47
2022/08/28 09:51:40;;;;;;;8.45;4.05;;;21.40;52.20;;;;;;5035361;28;20041;-47
2022/08/28 09:54:37;;;;;;;6.50;3.67;;;21.50;53.00;;;;;;5057384;28;20055;-49
2022/08/28 09:57:03;;;;;;;9.45;4.10;;;21.50;53.60;;;;;;5054286;28;20034;-48
2022/08/28 09:59:29;;;;;;;8.93;3.83;;;21.50;51.50;;;;;;5066304;28;20040;-47
2022/08/28 10:02:10;;;;;;;11.13;3.70;;;21.40;52.40;;;;;;5060103;28;20450;-49
2022/08/28 10:05:09;;;;;;;15.32;5.45;;;21.40;53.00;;;;;;5067008;28;20043;-49
2022/08/28 10:07:43;;;;;;;8.48;3.78;;;21.80;54.60;;;;;;5049298;28;20047;-47
2022/08/28 10:10:29;;;;;;;9.85;4.03;;;21.50;54.50;;;;;;5060363;28;20036;-51
2022/08/28 10:13:18;;;;;;;7.10;4.28;;;21.90;54.20;;;;;;5049427;28;20025;-47
2022/08/28 10:15:52;;;;;;;10.43;5.00;;;21.90;54.30;;;;;;5050461;28;20031;-47
2022/08/28 10:18:45;;;;;;;10.68;4.93;;;22.00;54.60;;;;;;5057526;28;20033;-48
2022/08/28 10:21:33;;;;;;;8.50;4.30;;;21.60;55.80;;;;;;5051608;28;20398;-46
2022/08/28 10:24:04;;;;;;;13.50;4.88;;;21.50;54.80;;;;;;5048840;28;20063;-48
2022/08/28 10:26:38;;;;;;;11.50;6.30;;;20.90;56.10;;;;;;5048615;28;20029;-47
2022/08/28 10:29:31;;;;;;;10.32;5.00;;;20.90;56.00;;;;;;5048616;28;20021;-47
2022/08/28 10:32:03;;;;;;;11.10;5.53;;;20.90;57.40;;;;;;5049403;28;20025;-48
2022/08/28 10:34:54;;;;;;;11.48;5.70;;;20.70;54.80;;;;;;5036436;28;20131;-49
2022/08/28 10:37:47;;;;;;;9.40;5.65;;;20.70;54.40;;;;;;5059973;28;20024;-47
2022/08/28 10:40:30;;;;;;;10.30;5.30;;;20.90;53.60;;;;;;5064372;28;20069;-47
2022/08/28 10:43:40;;;;;;;10.77;6.10;;;20.70;54.00;;;;;;5031309;28;20029;-46
2022/08/28 10:46:33;;;;;;;8.85;4.95;;;20.30;55.00;;;;;;4985757;28;20042;-47
2022/08/28 10:49:19;;;;;;;11.05;5.63;;;20.00;56.00;;;;;;5003943;28;20499;-48
2022/08/28 10:51:52;;;;;;;8.73;4.80;;;20.10;55.40;;;;;;4984967;28;20043;-47
2022/08/28 10:54:35;;;;;;;11.93;4.93;;;20.20;57.60;;;;;;4990349;28;20543;-47
2022/08/28 10:57:30;;;;;;;7.15;4.20;;;20.40;58.20;;;;;;5004127;28;20459;-47
2022/08/28 10:59:58;;;;;;;10.70;4.53;;;21.00;56.70;;;;;;5006381;28;20467;-47
2022/08/28 11:02:25;;;;;;;12.77;5.43;;;21.00;56.10;;;;;;5002760;28;20383;-49
2022/08/28 11:04:54;;;;;;;10.77;5.70;;;20.70;55.80;;;;;;4997322;28;20444;-47
2022/08/28 11:07:48;;;;;;;12.52;5.18;;;20.40;56.30;;;;;;5010187;28;20049;-46
2022/08/28 11:10:19;;;;;;;15.82;5.22;;;20.40;57.60;;;;;;4993260;28;20034;-47
2022/08/28 11:12:46;;;;;;;10.23;5.30;;;20.50;56.80;;;;;;4996065;28;20078;-48
2022/08/28 11:15:27;;;;;;;9.80;4.95;;;20.50;56.90;;;;;;5008358;28;20045;-47
2022/08/28 11:18:16;;;;;;;8.90;4.07;;;20.70;57.90;;;;;;4995760;28;20029;-47
2022/08/28 11:21:27;;;;;;;7.22;4.57;;;20.20;57.80;;;;;;5012450;28;20194;-47
2022/08/28 11:24:18;;;;;;;12.32;5.03;;;20.10;59.80;;;;;;4996765;28;20149;-46
2022/08/28 11:27:04;;;;;;;9.50;4.63;;;20.20;60.60;;;;;;5064467;28;20028;-49
2022/08/28 11:30:24;;;;;;;10.85;4.40;;;20.40;58.70;;;;;;5070747;28;20024;-49
2022/08/28 11:32:49;;;;;;;11.50;5.43;;;20.20;59.40;;;;;;5061616;28;20111;-47
2022/08/28 11:35:34;;;;;;;13.05;4.82;;;20.30;58.60;;;;;;5039617;28;20110;-47
2022/08/28 11:37:59;;;;;;;8.98;3.78;;;20.00;59.30;;;;;;5060238;28;20039;-47
2022/08/28 11:40:31;;;;;;;11.55;5.03;;;20.10;59.80;;;;;;5037829;28;20029;-48
2022/08/28 11:43:15;;;;;;;13.25;5.32;;;20.30;58.60;;;;;;5059819;28;20032;-47
2022/08/28 11:45:44;;;;;;;9.50;4.75;;;20.20;59.20;;;;;;5041479;28;20107;-47
2022/08/28 11:48:24;;;;;;;9.77;4.70;;;20.20;59.70;;;;;;5071193;28;20044;-50
2022/08/28 11:51:16;;;;;;;8.80;4.10;;;20.10;60.30;;;;;;5061043;28;20307;-47
2022/08/28 11:53:50;;;;;;;14.98;4.82;;;19.80;60.60;;;;;;5050501;28;20039;-47
2022/08/28 11:56:50;;;;;;;12.00;4.38;;;19.80;62.30;;;;;;5066560;28;20040;-48
2022/08/28 11:59:35;;;;;;;12.52;4.53;;;19.80;61.80;;;;;;5035854;28;20032;-48
2022/08/28 12:02:38;;;;;;;8.68;4.18;;;19.90;61.90;;;;;;5047539;28;20331;-47
2022/08/28 12:05:31;;;;;;;12.82;4.93;;;19.80;61.90;;;;;;5066473;28;20081;-49
2022/08/28 12:08:01;;;;;;;9.30;4.45;;;19.60;62.40;;;;;;5050447;28;20036;-49
2022/08/28 12:10:30;;;;;;;14.20;4.60;;;19.80;62.90;;;;;;5052486;28;20017;-47
2022/08/28 12:13:06;;;;;;;15.15;5.60;;;20.00;61.80;;;;;;5033429;28;20036;-47
2022/08/28 12:15:32;;;;;;;11.00;4.63;;;19.90;62.60;;;;;;5068377;28;20044;-47
2022/08/28 12:17:59;;;;;;;10.88;5.38;;;20.00;62.70;;;;;;5066580;28;20036;-47
2022/08/28 12:20:33;;;;;;;8.75;4.78;;;20.20;62.50;;;;;;5050860;28;20024;-49
2022/08/28 12:23:22;;;;;;;11.48;4.80;;;20.10;62.60;;;;;;5048455;28;20063;-47
2022/08/28 12:26:08;;;;;;;11.55;5.28;;;19.80;63.00;;;;;;5060499;28;20028;-51
2022/08/28 12:28:46;;;;;;;9.27;5.15;;;19.70;63.60;;;;;;5031789;28;20110;-48
2022/08/28 12:34:36;;;;;;;11.00;4.80;;;19.80;62.50;;;;;;5050737;28;20063;-46
2022/08/28 12:37:17;;;;;;;17.05;5.80;;;19.80;63.70;;;;;;5056859;28;20028;-49
2022/08/28 12:39:44;;;;;;;10.88;4.97;;;19.80;63.50;;;;;;5049875;28;20056;-47
2022/08/28 12:42:17;;;;;;;11.18;4.85;;;19.70;64.00;;;;;;5068289;28;20404;-47
2022/08/28 12:44:43;;;;;;;11.82;5.45;;;19.60;64.00;;;;;;5063537;28;20033;-47
2022/08/28 12:47:17;;;;;;;8.25;4.22;;;19.60;64.70;;;;;;5032262;28;20061;-48
2022/08/28 12:49:43;;;;;;;12.85;5.93;;;19.40;64.30;;;;;;5032320;28;20079;-46
2022/08/28 12:52:24;;;;;;;8.07;5.00;;;19.50;64.50;;;;;;5047200;28;20627;-47
2022/08/28 12:54:53;;;;;;;12.77;5.03;;;19.60;64.00;;;;;;5040210;28;20346;-47
2022/08/28 12:57:22;;;;;;;7.93;4.43;;;19.90;64.90;;;;;;5030626;28;20041;-51
2022/08/28 12:59:50;;;;;;;10.95;4.63;;;19.90;63.40;;;;;;5039297;28;20064;-51
2022/08/28 13:02:34;;;;;;;10.93;4.70;;;20.00;64.40;;;;;;5031828;28;20067;-48
2022/08/28 13:05:10;;;;;;;20.27;4.95;;;19.80;63.80;;;;;;5048672;28;20036;-47
2022/08/28 13:07:39;;;;;;;11.30;4.28;;;19.60;64.70;;;;;;5028422;28;20450;-47
2022/08/28 13:10:49;;;;;;;9.98;4.78;;;19.50;64.60;;;;;;5044933;28;20044;-47
2022/08/28 13:13:43;;;;;;;10.35;4.03;;;19.50;64.30;;;;;;5017405;28;20088;-48
2022/08/28 13:16:11;;;;;;;10.65;4.65;;;19.90;64.40;;;;;;5038302;28;20033;-47